createdAt,value
2023-03-16T12:49:12.984Z,23.89
2023-03-16T12:51:45.468Z,25.82
2023-03-16T12:54:25.709Z,23.67
2023-03-16T12:57:07.811Z,20.85
2023-03-16T12:59:43.657Z,20.74
2023-03-16T13:02:31.773Z,22.86
2023-03-16T13:05:18.537Z,22.12
2023-03-16T13:07:52.699Z,23.46
2023-03-16T13:10:25.784Z,23.00
2023-03-16T13:13:18.119Z,23.39
2023-03-16T13:15:58.520Z,22.52
2023-03-16T13:18:41.770Z,22.64
2023-03-16T13:21:21.601Z,24.16
2023-03-16T13:24:13.865Z,23.05
2023-03-16T13:27:29.319Z,21.74
2023-03-16T13:30:18.290Z,20.70
2023-03-16T13:32:55.233Z,21.74
2023-03-16T13:35:30.412Z,22.08
2023-03-16T13:38:06.564Z,21.23
2023-03-16T13:40:48.041Z,19.84
2023-03-16T13:43:31.860Z,19.19
2023-03-16T13:46:19.307Z,19.06
2023-03-16T13:48:51.268Z,19.08
2023-03-16T13:51:23.817Z,17.55
2023-03-16T13:53:55.552Z,18.25
2023-03-16T13:56:29.253Z,19.48
2023-03-16T13:59:01.020Z,22.20
2023-03-16T14:01:33.325Z,22.01
2023-03-16T14:04:13.680Z,20.90
2023-03-16T14:06:58.203Z,21.20
2023-03-16T14:09:34.511Z,21.48
2023-03-16T14:12:06.351Z,21.71
2023-03-16T14:14:41.331Z,23.10
2023-03-16T14:17:21.536Z,21.82
2023-03-16T14:19:59.730Z,20.50
2023-03-16T14:22:37.147Z,21.26
2023-03-16T14:25:25.517Z,20.62
2023-03-16T14:28:06.424Z,19.12
2023-03-16T14:30:38.218Z,20.86
2023-03-16T14:33:27.409Z,20.65
2023-03-16T14:36:09.764Z,18.85
2023-03-16T14:38:43.839Z,19.25
2023-03-16T14:41:26.344Z,20.24
2023-03-16T14:44:00.782Z,20.50
2023-03-16T14:46:40.432Z,19.16
2023-03-16T14:49:22.775Z,20.62
2023-03-16T14:52:02.686Z,20.45
2023-03-16T14:54:34.358Z,20.28
2023-03-16T14:57:06.304Z,18.96
2023-03-16T14:59:38.184Z,17.94
2023-03-16T15:02:22.226Z,17.97
2023-03-16T15:04:55.106Z,16.51
2023-03-16T15:07:34.563Z,16.83
2023-03-16T15:10:26.909Z,16.13
2023-03-16T15:13:06.174Z,17.68
2023-03-16T15:15:37.721Z,18.10
2023-03-16T15:18:09.759Z,19.25
2023-03-16T15:20:45.477Z,19.61
2023-03-16T15:23:17.469Z,19.31
2023-03-16T15:25:51.719Z,19.73
2023-03-16T15:28:25.516Z,21.40
2023-03-16T15:30:59.837Z,21.16
2023-03-16T15:33:32.611Z,20.26
2023-03-16T15:36:18.648Z,19.55
2023-03-16T15:38:54.345Z,19.02
2023-03-16T15:41:30.106Z,18.92
2023-03-16T15:44:12.075Z,19.16
2023-03-16T15:46:43.660Z,20.32
2023-03-16T15:49:15.480Z,19.70
2023-03-16T15:51:47.020Z,19.72
2023-03-16T15:54:18.551Z,19.46
2023-03-16T15:56:54.519Z,19.76
2023-03-16T15:59:30.939Z,19.52
2023-03-16T16:02:03.799Z,19.86
2023-03-16T16:04:35.474Z,19.32
2023-03-16T16:07:10.918Z,19.42
2023-03-16T16:09:42.905Z,19.65
2023-03-16T16:12:17.208Z,19.75
2023-03-16T16:14:48.972Z,20.70
2023-03-16T16:17:36.559Z,22.02
2023-03-16T16:20:35.292Z,21.65
2023-03-16T16:23:08.259Z,22.63
2023-03-16T16:25:42.365Z,23.06
2023-03-16T16:28:20.381Z,22.27
2023-03-16T16:30:52.110Z,23.26
2023-03-16T16:33:24.902Z,23.14
2023-03-16T16:36:01.587Z,23.75
2023-03-16T16:38:33.558Z,24.37
2023-03-16T16:41:09.139Z,24.27
2023-03-16T16:43:46.633Z,24.36
2023-03-16T16:46:22.577Z,24.74
2023-03-16T16:49:01.736Z,24.72
2023-03-16T16:51:34.321Z,25.33
2023-03-16T16:54:21.943Z,25.65
2023-03-16T16:56:56.390Z,25.37
2023-03-16T16:59:34.483Z,25.61
2023-03-16T17:02:43.610Z,26.00
2023-03-16T17:05:27.997Z,26.26
2023-03-16T17:08:04.062Z,26.42
2023-03-16T17:10:37.833Z,26.68
2023-03-16T17:13:40.134Z,26.85
2023-03-16T17:16:16.776Z,27.03
2023-03-16T17:18:49.486Z,27.49
2023-03-16T17:21:25.191Z,27.81
2023-03-16T17:23:57.536Z,28.65
2023-03-16T17:26:38.189Z,29.16
2023-03-16T17:29:29.046Z,29.99
2023-03-16T17:32:03.399Z,30.30
2023-03-16T17:34:35.425Z,32.21
2023-03-16T17:37:16.409Z,31.54
2023-03-16T17:39:48.173Z,31.80
2023-03-16T17:42:22.583Z,32.21
2023-03-16T17:44:54.263Z,32.12
2023-03-16T17:47:29.883Z,31.80
2023-03-16T17:50:01.457Z,31.47
2023-03-16T17:52:33.304Z,32.72
2023-03-16T17:55:05.443Z,33.42
2023-03-16T17:57:37.047Z,34.09
2023-03-16T18:00:35.878Z,35.66
2023-03-16T18:03:17.314Z,36.13
2023-03-16T18:05:49.149Z,35.28
2023-03-16T18:08:30.078Z,34.57
2023-03-16T18:11:07.706Z,36.06
2023-03-16T18:13:41.056Z,36.52
2023-03-16T18:16:19.996Z,37.82
2023-03-16T18:18:55.233Z,37.20
2023-03-16T18:21:27.119Z,37.14
2023-03-16T18:23:59.358Z,37.02
2023-03-16T18:26:30.961Z,37.49
2023-03-16T18:29:03.578Z,38.09
2023-03-16T18:31:35.699Z,38.36
2023-03-16T18:34:07.807Z,38.40
2023-03-16T18:36:41.048Z,39.25
2023-03-16T18:39:20.449Z,39.24
2023-03-16T18:41:52.696Z,39.21
2023-03-16T18:44:29.818Z,40.09
2023-03-16T18:47:03.269Z,40.59
2023-03-16T18:49:36.872Z,39.95
2023-03-16T18:52:22.760Z,40.14
2023-03-16T18:54:55.649Z,39.86
2023-03-16T18:57:28.776Z,40.89
2023-03-16T19:00:00.304Z,41.04
2023-03-16T19:02:41.712Z,40.99
2023-03-16T19:05:17.439Z,41.15
2023-03-16T19:07:52.864Z,41.72
2023-03-16T19:10:36.726Z,42.10
2023-03-16T19:13:19.344Z,42.60
2023-03-16T19:15:54.763Z,42.96
2023-03-16T19:18:26.407Z,43.23
2023-03-16T19:20:58.020Z,44.61
2023-03-16T19:23:35.534Z,44.37
2023-03-16T19:26:08.085Z,44.43
2023-03-16T19:28:42.624Z,44.39
2023-03-16T19:31:25.859Z,44.04
2023-03-16T19:33:58.556Z,43.09
2023-03-16T19:36:32.274Z,44.07
2023-03-16T19:39:04.186Z,44.68
2023-03-16T19:41:38.017Z,45.26
2023-03-16T19:44:26.126Z,45.44
2023-03-16T19:46:59.123Z,45.51
2023-03-16T19:49:30.920Z,45.02
2023-03-16T19:52:02.497Z,45.42
2023-03-16T19:54:35.073Z,45.30
2023-03-16T19:57:15.007Z,45.26
2023-03-16T19:59:53.138Z,45.96
2023-03-16T20:02:40.286Z,45.50
2023-03-16T20:05:25.586Z,45.85
2023-03-16T20:07:58.768Z,45.41
2023-03-16T20:10:32.654Z,45.42
2023-03-16T20:13:04.474Z,45.78
2023-03-16T20:15:37.529Z,45.75
2023-03-16T20:18:16.431Z,45.97
2023-03-16T20:20:48.090Z,46.98
2023-03-16T20:23:24.597Z,47.22
2023-03-16T20:26:02.169Z,47.53
2023-03-16T20:28:36.936Z,47.42
2023-03-16T20:31:18.237Z,47.37
2023-03-16T20:33:52.318Z,47.95
2023-03-16T20:36:25.345Z,48.05
2023-03-16T20:38:56.891Z,48.75
2023-03-16T20:41:32.324Z,48.48
2023-03-16T20:44:04.792Z,47.85
2023-03-16T20:46:41.128Z,48.38
2023-03-16T20:49:21.907Z,47.91
2023-03-16T20:51:54.140Z,48.26
2023-03-16T20:54:25.893Z,48.46
2023-03-16T20:56:58.009Z,49.35
2023-03-16T20:59:30.383Z,48.82
2023-03-16T21:02:03.196Z,50.17
2023-03-16T21:04:34.883Z,49.92
2023-03-16T21:07:06.642Z,49.68
2023-03-16T21:09:38.483Z,49.86
2023-03-16T21:12:27.056Z,48.66
2023-03-16T21:15:00.369Z,48.37
2023-03-16T21:17:37.138Z,48.30
2023-03-16T21:20:20.678Z,46.75
2023-03-16T21:22:52.429Z,47.41
2023-03-16T21:25:32.381Z,47.98
2023-03-16T21:28:05.163Z,47.79
2023-03-16T21:30:45.989Z,46.54
2023-03-16T21:33:32.630Z,46.08
2023-03-16T21:36:12.366Z,46.81
2023-03-16T21:38:45.960Z,46.74
2023-03-16T21:41:17.692Z,47.08
2023-03-16T21:43:54.385Z,46.45
2023-03-16T21:46:26.451Z,46.27
2023-03-16T21:48:58.084Z,45.92
2023-03-16T21:51:31.519Z,45.87
2023-03-16T21:54:03.896Z,45.72
2023-03-16T21:56:36.199Z,46.23
2023-03-16T21:59:08.053Z,46.41
2023-03-16T22:01:50.902Z,46.84
2023-03-16T22:04:32.335Z,46.47
2023-03-16T22:07:11.586Z,46.54
2023-03-16T22:09:43.278Z,46.79
2023-03-16T22:12:14.921Z,46.46
2023-03-16T22:14:46.472Z,46.65
2023-03-16T22:17:22.527Z,46.73
2023-03-16T22:19:54.305Z,46.84
2023-03-16T22:22:33.388Z,46.94
2023-03-16T22:25:18.832Z,47.25
2023-03-16T22:27:52.078Z,47.25
2023-03-16T22:30:27.631Z,47.54
2023-03-16T22:33:00.399Z,47.39
2023-03-16T22:35:36.682Z,48.28
2023-03-16T22:38:12.496Z,47.68
2023-03-16T22:40:44.183Z,47.88
2023-03-16T22:43:22.566Z,48.46
2023-03-16T22:45:56.495Z,48.38
2023-03-16T22:48:30.908Z,48.35
2023-03-16T22:51:04.767Z,48.92
2023-03-16T22:53:41.405Z,48.79
2023-03-16T22:56:13.144Z,48.59
2023-03-16T22:58:53.428Z,48.64
2023-03-16T23:01:39.314Z,48.62
2023-03-16T23:04:30.139Z,49.29
2023-03-16T23:07:02.108Z,49.09
2023-03-16T23:09:33.700Z,49.34
2023-03-16T23:12:14.434Z,49.04
2023-03-16T23:14:46.149Z,50.62
2023-03-16T23:17:22.115Z,49.89
2023-03-16T23:19:54.453Z,50.07
2023-03-16T23:22:26.490Z,50.19
2023-03-16T23:24:57.999Z,50.26
2023-03-16T23:27:29.564Z,50.23
2023-03-16T23:30:01.288Z,50.00
2023-03-16T23:32:33.080Z,50.23
2023-03-16T23:35:15.386Z,51.02
2023-03-16T23:37:48.227Z,51.08
2023-03-16T23:40:21.591Z,51.13
2023-03-16T23:42:56.165Z,51.14
2023-03-16T23:45:43.188Z,50.86
2023-03-16T23:48:19.541Z,50.74
2023-03-16T23:50:55.067Z,50.20
2023-03-16T23:53:26.633Z,50.40
2023-03-16T23:55:58.282Z,51.77
2023-03-16T23:58:29.767Z,52.29
